createdAt,value
2022-08-12T00:02:05.148Z,86.11
2022-08-12T00:04:50.143Z,85.54
2022-08-12T00:07:35.910Z,85.49
2022-08-12T00:10:21.041Z,85.64
2022-08-12T00:13:06.213Z,85.73
2022-08-12T00:15:54.075Z,86.22
2022-08-12T00:18:39.212Z,86.15
2022-08-12T00:21:24.576Z,85.86
2022-08-12T00:24:12.818Z,85.35
2022-08-12T00:26:59.777Z,85.12
2022-08-12T00:29:47.916Z,85.17
2022-08-12T00:32:35.621Z,84.59
2022-08-12T00:35:22.702Z,85.05
2022-08-12T00:38:12.744Z,85.14
2022-08-12T00:41:00.087Z,84.67
2022-08-12T00:43:27.870Z,84.81
2022-08-12T00:46:14.443Z,84.93
2022-08-12T00:48:42.174Z,85.34
2022-08-12T00:51:09.546Z,85.77
2022-08-12T00:53:37.533Z,86.23
2022-08-12T00:56:07.457Z,86.77
2022-08-12T00:58:35.033Z,86.81
2022-08-12T01:01:05.499Z,87.41
2022-08-12T01:03:59.646Z,87.30
2022-08-12T01:06:46.406Z,87.40
2022-08-12T01:09:38.246Z,87.86
2022-08-12T01:12:06.606Z,88.20
2022-08-12T01:14:33.928Z,88.34
2022-08-12T01:17:00.541Z,88.86
2022-08-12T01:19:27.308Z,89.82
2022-08-12T01:22:23.308Z,91.06
2022-08-12T01:25:29.733Z,92.28
2022-08-12T01:27:58.759Z,92.40
2022-08-12T01:30:27.049Z,92.46
2022-08-12T01:32:56.370Z,93.35
2022-08-12T01:35:24.181Z,93.04
2022-08-12T01:37:57.589Z,93.39
2022-08-12T01:40:34.879Z,93.02
2022-08-12T01:43:09.588Z,92.69
2022-08-12T01:45:46.404Z,92.95
2022-08-12T01:48:53.717Z,93.65
2022-08-12T01:52:15.217Z,93.36
2022-08-12T01:54:22.745Z,92.77
2022-08-12T01:57:13.418Z,92.87
2022-08-12T02:00:08.435Z,92.30
2022-08-12T02:02:48.377Z,93.19
2022-08-12T02:06:01.734Z,93.31
2022-08-12T02:09:14.566Z,93.72
2022-08-12T02:12:06.191Z,93.86
2022-08-12T02:14:53.218Z,94.39
2022-08-12T02:17:55.901Z,94.39
2022-08-12T02:20:52.526Z,94.79
2022-08-12T02:23:27.028Z,94.57
2022-08-12T02:25:58.388Z,94.10
2022-08-12T02:28:25.413Z,93.93
2022-08-12T02:30:52.027Z,93.32
2022-08-12T02:33:20.936Z,93.45
2022-08-12T02:35:48.361Z,92.98
2022-08-12T02:38:15.293Z,92.93
2022-08-12T02:40:47.832Z,92.78
2022-08-12T02:43:34.740Z,92.63
2022-08-12T02:46:14.020Z,92.63
2022-08-12T02:48:52.748Z,92.69
2022-08-12T02:51:23.844Z,92.78
2022-08-12T02:54:04.754Z,92.69
2022-08-12T02:56:40.258Z,92.36
2022-08-12T02:59:14.191Z,93.11
2022-08-12T03:01:49.931Z,93.75
2022-08-12T03:04:24.593Z,93.38
2022-08-12T03:07:05.146Z,92.85
2022-08-12T03:10:03.388Z,93.33
2022-08-12T03:12:25.006Z,94.19
2022-08-12T03:14:55.087Z,94.38
2022-08-12T03:17:30.598Z,94.40
2022-08-12T03:20:09.326Z,94.72
2022-08-12T03:22:42.204Z,94.74
2022-08-12T03:25:31.765Z,94.72
2022-08-12T03:27:58.463Z,94.67
2022-08-12T03:30:34.226Z,95.14
2022-08-12T03:33:02.830Z,95.15
2022-08-12T03:35:38.420Z,95.53
2022-08-12T03:38:12.249Z,95.25
2022-08-12T03:41:15.803Z,95.03
2022-08-12T03:44:16.977Z,94.85
2022-08-12T03:47:07.227Z,95.15
2022-08-12T03:49:54.321Z,95.39
2022-08-12T03:52:39.697Z,95.22
2022-08-12T03:55:25.441Z,94.55
2022-08-12T03:58:10.717Z,94.25
2022-08-12T04:00:38.294Z,94.39
2022-08-12T04:03:08.727Z,94.33
2022-08-12T04:05:55.592Z,94.22
2022-08-12T04:08:25.923Z,93.80
2022-08-12T04:11:14.759Z,94.17
2022-08-12T04:13:41.282Z,94.53
2022-08-12T04:16:10.780Z,94.50
2022-08-12T04:18:40.424Z,94.87
2022-08-12T04:21:10.075Z,94.86
2022-08-12T04:23:38.858Z,94.86
2022-08-12T04:26:06.720Z,95.38
2022-08-12T04:28:33.515Z,95.46
2022-08-12T04:31:00.069Z,95.92
2022-08-12T04:33:27.171Z,95.73
2022-08-12T04:35:54.741Z,95.54
2022-08-12T04:38:22.859Z,95.43
2022-08-12T04:40:49.800Z,95.50
2022-08-12T04:43:55.356Z,95.86
2022-08-12T04:46:04.245Z,95.94
2022-08-12T04:48:30.843Z,95.70
2022-08-12T04:50:58.410Z,95.43
2022-08-12T04:53:25.189Z,95.55
2022-08-12T04:55:52.324Z,95.55
2022-08-12T04:58:29.294Z,95.38
2022-08-12T05:00:56.590Z,95.13
2022-08-12T05:03:26.493Z,95.25
2022-08-12T05:05:56.682Z,95.11
2022-08-12T05:08:24.273Z,95.24
2022-08-12T05:10:51.118Z,95.78
2022-08-12T05:13:20.621Z,96.24
2022-08-12T05:16:05.097Z,96.41
2022-08-12T05:18:35.467Z,96.94
2022-08-12T05:21:09.856Z,97.16
2022-08-12T05:23:38.128Z,97.56
2022-08-12T05:26:06.203Z,97.75
2022-08-12T05:28:33.280Z,98.21
2022-08-12T05:31:01.871Z,97.89
2022-08-12T05:33:38.494Z,98.05
2022-08-12T05:36:09.667Z,97.93
2022-08-12T05:38:55.517Z,97.80
2022-08-12T05:41:32.843Z,98.22
2022-08-12T05:44:02.033Z,98.55
2022-08-12T05:46:29.133Z,99.05
2022-08-12T05:48:56.673Z,98.98
2022-08-12T05:51:28.833Z,99.22
2022-08-12T05:54:06.643Z,99.06
2022-08-12T05:56:35.548Z,98.60
2022-08-12T05:59:05.162Z,99.09
2022-08-12T06:02:11.859Z,98.59
2022-08-12T06:04:18.233Z,99.24
2022-08-12T06:06:51.326Z,100.00
2022-08-12T06:09:17.907Z,100.00
2022-08-12T06:12:04.805Z,100.00
2022-08-12T06:14:37.795Z,100.00
2022-08-12T06:17:08.842Z,100.00
2022-08-12T06:20:28.037Z,100.00
2022-08-12T06:22:22.555Z,100.00
2022-08-12T06:24:49.963Z,100.00
2022-08-12T06:27:18.902Z,100.00
2022-08-12T06:30:09.766Z,100.00
2022-08-12T06:32:32.163Z,100.00
2022-08-12T06:35:27.171Z,100.00
2022-08-12T06:37:57.148Z,100.00
2022-08-12T06:40:44.313Z,100.00
2022-08-12T06:43:11.210Z,100.00
2022-08-12T06:45:46.258Z,100.00
2022-08-12T06:48:13.866Z,100.00
2022-08-12T06:50:40.568Z,100.00
2022-08-12T06:53:09.418Z,100.00
2022-08-12T06:55:36.603Z,100.00
2022-08-12T06:58:07.725Z,100.00
2022-08-12T07:00:37.300Z,100.00
2022-08-12T07:03:16.332Z,100.00
2022-08-12T07:05:49.581Z,100.00
2022-08-12T07:08:18.034Z,100.00
2022-08-12T07:10:53.544Z,100.00
2022-08-12T07:13:20.558Z,100.00
2022-08-12T07:15:47.124Z,99.42
2022-08-12T07:18:19.638Z,98.72
2022-08-12T07:20:52.843Z,97.35
2022-08-12T07:23:20.392Z,96.65
2022-08-12T07:25:46.991Z,95.60
2022-08-12T07:28:19.579Z,95.90
2022-08-12T07:30:49.238Z,95.72
2022-08-12T07:33:17.149Z,95.67
2022-08-12T07:35:51.072Z,95.30
2022-08-12T07:38:28.996Z,95.27
2022-08-12T07:41:17.619Z,94.61
2022-08-12T07:43:51.280Z,93.97
2022-08-12T07:46:21.414Z,94.48
2022-08-12T07:48:50.970Z,94.50
2022-08-12T07:51:25.489Z,94.42
2022-08-12T07:54:00.897Z,94.32
2022-08-12T07:56:31.292Z,93.92
2022-08-12T07:58:59.297Z,94.07
2022-08-12T08:01:27.235Z,93.49
2022-08-12T08:04:17.921Z,93.67
2022-08-12T08:06:45.829Z,93.09
2022-08-12T08:09:15.431Z,92.70
2022-08-12T08:12:00.139Z,93.35
2022-08-12T08:14:29.157Z,92.61
2022-08-12T08:16:57.750Z,91.82
2022-08-12T08:19:26.105Z,90.94
2022-08-12T08:21:54.978Z,89.50
2022-08-12T08:24:28.074Z,88.88
2022-08-12T08:26:58.583Z,88.70
2022-08-12T08:29:25.954Z,88.48
2022-08-12T08:32:00.021Z,87.70
2022-08-12T08:34:27.725Z,86.50
2022-08-12T08:37:17.305Z,86.83
2022-08-12T08:39:44.263Z,86.11
2022-08-12T08:42:29.601Z,85.07
2022-08-12T08:44:58.877Z,85.32
2022-08-12T08:47:26.369Z,85.81
2022-08-12T08:49:53.869Z,85.46
2022-08-12T08:52:35.317Z,84.78
2022-08-12T08:55:14.556Z,82.79
2022-08-12T08:57:44.663Z,81.51
2022-08-12T09:00:22.190Z,79.83
2022-08-12T09:02:59.282Z,79.17
2022-08-12T09:05:27.812Z,78.45
2022-08-12T09:10:45.766Z,76.62
2022-08-12T09:13:29.232Z,77.52
2022-08-12T09:19:04.767Z,75.28
2022-08-12T09:21:54.552Z,76.17
2022-08-12T09:24:21.867Z,76.93
2022-08-12T09:26:49.429Z,76.13
2022-08-12T09:30:08.607Z,76.03
2022-08-12T09:32:11.605Z,76.59
2022-08-12T09:34:56.654Z,75.46
2022-08-12T09:37:28.366Z,74.61
2022-08-12T09:41:01.505Z,73.77
2022-08-12T09:43:21.740Z,72.61
2022-08-12T09:46:07.048Z,71.18
2022-08-12T09:48:39.205Z,72.83
2022-08-12T09:51:17.190Z,72.91
2022-08-12T09:53:50.653Z,73.26
2022-08-12T09:56:58.633Z,73.45
2022-08-12T10:00:13.623Z,73.25
2022-08-12T10:02:45.958Z,73.37
2022-08-12T10:04:59.644Z,75.43
2022-08-12T10:07:28.706Z,75.04
2022-08-12T10:10:08.056Z,75.02
2022-08-12T10:13:10.923Z,75.14
2022-08-12T10:16:02.373Z,76.13
2022-08-12T10:18:29.281Z,74.18
2022-08-12T10:20:57.658Z,73.62
2022-08-12T10:23:40.144Z,74.28
2022-08-12T10:26:37.378Z,73.32
2022-08-12T10:30:01.617Z,72.22
2022-08-12T10:32:21.511Z,72.72
2022-08-12T10:34:53.429Z,70.90
2022-08-12T10:38:34.992Z,70.70
2022-08-12T10:40:19.023Z,71.38
2022-08-12T10:43:05.203Z,72.59
2022-08-12T10:45:31.899Z,71.54
2022-08-12T10:48:19.898Z,71.14
2022-08-12T10:50:58.601Z,68.87
2022-08-12T10:53:45.823Z,69.39
2022-08-12T10:56:17.755Z,69.66
2022-08-12T10:58:47.254Z,67.70
2022-08-12T11:01:48.969Z,66.37
2022-08-12T11:04:24.519Z,65.28
2022-08-12T11:07:08.081Z,63.18
2022-08-12T11:09:55.567Z,63.15
2022-08-12T11:12:55.865Z,64.69
2022-08-12T11:15:18.816Z,64.25
2022-08-12T11:17:52.930Z,63.53
2022-08-12T11:20:24.318Z,64.63
2022-08-12T11:22:59.811Z,63.01
2022-08-12T11:25:56.762Z,62.79
2022-08-12T11:28:16.181Z,61.37
2022-08-12T11:30:44.091Z,60.14
2022-08-12T11:33:12.319Z,61.81
2022-08-12T11:35:50.675Z,62.59
2022-08-12T11:38:20.338Z,62.51
2022-08-12T11:40:47.100Z,61.51
2022-08-12T11:43:19.677Z,62.11
2022-08-12T11:45:47.585Z,60.87
2022-08-12T11:48:19.566Z,62.45
2022-08-12T11:50:53.647Z,62.30
2022-08-12T11:53:59.307Z,60.93
2022-08-12T11:56:07.606Z,61.78
2022-08-12T12:01:57.842Z,61.16
2022-08-12T12:02:02.690Z,61.81
2022-08-12T12:04:11.140Z,62.93
2022-08-12T12:06:37.801Z,62.74
2022-08-12T12:09:04.664Z,62.88
2022-08-12T12:11:48.534Z,63.61
2022-08-12T12:14:15.904Z,64.22
2022-08-12T12:16:49.995Z,63.35
2022-08-12T12:19:17.823Z,62.77
2022-08-12T12:21:48.194Z,62.25
2022-08-12T12:24:20.808Z,62.42
2022-08-12T12:27:00.146Z,62.08
2022-08-12T12:30:20.042Z,61.28
2022-08-12T12:32:16.099Z,61.72
2022-08-12T12:35:14.312Z,63.23
2022-08-12T12:38:04.169Z,63.17
2022-08-12T12:40:15.851Z,62.66
2022-08-12T12:42:56.793Z,61.37
2022-08-12T12:45:27.382Z,62.22
2022-08-12T12:47:55.041Z,62.88
2022-08-12T12:50:34.783Z,60.58
2022-08-12T12:53:02.247Z,60.65
2022-08-12T12:55:32.711Z,62.00
2022-08-12T12:58:04.914Z,61.89
2022-08-12T13:00:36.461Z,62.31
2022-08-12T13:03:03.027Z,62.11
2022-08-12T13:05:42.124Z,62.06
2022-08-12T13:08:28.617Z,60.73
2022-08-12T13:11:05.378Z,61.00
2022-08-12T13:14:08.820Z,58.15
2022-08-12T13:16:26.654Z,58.79
2022-08-12T13:18:53.904Z,59.12
2022-08-12T13:21:33.538Z,58.81
2022-08-12T13:24:09.585Z,59.95
2022-08-12T13:26:37.915Z,60.55
2022-08-12T13:29:04.509Z,61.39
2022-08-12T13:31:31.042Z,60.88
2022-08-12T13:34:33.550Z,61.53
2022-08-12T13:36:50.833Z,61.80
2022-08-12T13:39:21.381Z,62.19
2022-08-12T13:41:49.550Z,62.12
2022-08-12T13:44:16.508Z,62.88
2022-08-12T13:46:43.546Z,62.90
2022-08-12T13:49:54.579Z,62.58
2022-08-12T13:52:11.302Z,63.44
2022-08-12T13:54:37.897Z,63.58
2022-08-12T13:57:04.501Z,62.84
2022-08-12T13:59:48.532Z,62.96
2022-08-12T14:02:22.564Z,63.01
2022-08-12T14:04:56.576Z,62.55
2022-08-12T14:07:23.791Z,63.02
2022-08-12T14:10:11.544Z,63.14
2022-08-12T14:12:50.772Z,64.09
2022-08-12T14:15:20.976Z,64.50
2022-08-12T14:18:23.341Z,64.89
2022-08-12T14:20:52.664Z,63.92
2022-08-12T14:24:05.130Z,63.74
2022-08-12T14:26:14.269Z,64.04
2022-08-12T14:28:45.222Z,62.86
2022-08-12T14:31:27.926Z,62.20
2022-08-12T14:33:59.389Z,63.10
2022-08-12T14:36:26.877Z,63.51
2022-08-12T14:38:55.023Z,63.29
2022-08-12T14:41:36.645Z,63.67
2022-08-12T14:44:58.893Z,63.38
2022-08-12T14:47:00.671Z,63.26
2022-08-12T14:50:34.253Z,63.07
2022-08-12T14:52:55.607Z,62.79
2022-08-12T14:57:58.227Z,63.23
2022-08-12T15:00:50.805Z,63.31
2022-08-12T15:03:20.564Z,63.33
2022-08-12T15:06:06.459Z,63.59
2022-08-12T15:08:41.196Z,64.69
2022-08-12T15:11:13.671Z,64.11
2022-08-12T15:13:45.399Z,64.68
2022-08-12T15:16:13.239Z,64.86
2022-08-12T15:18:55.465Z,65.45
2022-08-12T15:22:38.382Z,65.69
2022-08-12T15:24:13.034Z,65.77
2022-08-12T15:26:40.940Z,66.65
2022-08-12T15:29:07.603Z,67.61
2022-08-12T15:32:01.894Z,66.74
2022-08-12T15:34:24.122Z,67.63
2022-08-12T15:36:55.244Z,67.40
2022-08-12T15:39:22.314Z,67.97
2022-08-12T15:41:50.596Z,67.54
2022-08-12T15:44:38.294Z,67.50
2022-08-12T15:47:04.555Z,67.71
2022-08-12T15:49:54.292Z,68.09
2022-08-12T15:52:27.759Z,69.02
2022-08-12T15:54:58.693Z,68.33
2022-08-12T15:57:26.636Z,68.76
2022-08-12T16:00:06.492Z,68.53
2022-08-12T16:02:50.485Z,68.95
2022-08-12T16:06:12.374Z,69.70
2022-08-12T16:08:17.188Z,69.92
2022-08-12T16:10:46.879Z,69.93
2022-08-12T16:13:18.242Z,69.77
2022-08-12T16:16:03.818Z,69.79
2022-08-12T16:18:35.665Z,68.81
2022-08-12T16:21:04.873Z,69.11
2022-08-12T16:23:51.825Z,69.36
2022-08-12T16:26:27.602Z,69.84
2022-08-12T16:29:09.238Z,70.00
2022-08-12T16:31:42.463Z,69.60
2022-08-12T16:34:26.017Z,69.65
2022-08-12T16:37:03.053Z,69.79
2022-08-12T16:39:59.859Z,70.01
2022-08-12T16:42:22.673Z,70.05
2022-08-12T16:44:55.411Z,70.38
2022-08-12T16:47:23.800Z,70.45
2022-08-12T16:49:55.665Z,70.65
2022-08-12T16:52:22.469Z,70.78
2022-08-12T16:54:50.109Z,71.04
2022-08-12T16:57:16.689Z,71.11
2022-08-12T16:59:54.070Z,70.93
2022-08-12T17:02:33.491Z,71.07
2022-08-12T17:05:03.571Z,71.23
2022-08-12T17:07:36.651Z,71.22
2022-08-12T17:10:06.001Z,71.13
2022-08-12T17:12:32.704Z,70.67
2022-08-12T17:14:59.502Z,71.16
2022-08-12T17:17:39.368Z,71.80
2022-08-12T17:20:37.579Z,72.34
2022-08-12T17:22:56.521Z,72.45
2022-08-12T17:25:24.528Z,72.54
2022-08-12T17:27:57.303Z,72.50
2022-08-12T17:30:24.551Z,73.09
2022-08-12T17:32:53.394Z,73.96
2022-08-12T17:35:37.492Z,74.31
2022-08-12T17:38:07.290Z,74.59
2022-08-12T17:40:38.460Z,74.58
2022-08-12T17:43:54.832Z,74.91
2022-08-12T17:45:58.682Z,75.20
2022-08-12T17:48:34.833Z,75.19
2022-08-12T17:51:07.104Z,75.32
2022-08-12T17:54:05.923Z,75.32
2022-08-12T17:56:31.995Z,75.75
2022-08-12T17:59:00.286Z,75.70
2022-08-12T18:01:29.125Z,75.56
2022-08-12T18:04:21.030Z,75.42
2022-08-12T18:06:50.452Z,75.32
2022-08-12T18:09:18.011Z,75.22
2022-08-12T18:12:07.719Z,75.41
2022-08-12T18:14:36.972Z,76.05
2022-08-12T18:17:08.471Z,76.01
2022-08-12T18:20:05.505Z,76.54
2022-08-12T18:22:31.290Z,76.56
2022-08-12T18:26:15.768Z,76.86
2022-08-12T18:28:29.097Z,76.86
2022-08-12T18:31:02.239Z,77.45
2022-08-12T18:33:29.985Z,77.91
2022-08-12T18:36:13.300Z,77.95
2022-08-12T18:38:41.425Z,78.46
2022-08-12T18:41:33.657Z,78.26
2022-08-12T18:44:09.918Z,78.68
2022-08-12T18:46:53.925Z,79.27
2022-08-12T18:49:39.300Z,79.22
2022-08-12T18:52:07.690Z,79.42
2022-08-12T18:54:41.526Z,79.40
2022-08-12T18:58:06.019Z,79.55
2022-08-12T19:00:18.717Z,79.92
2022-08-12T19:02:53.269Z,80.99
2022-08-12T19:05:20.353Z,80.95
2022-08-12T19:08:00.939Z,80.54
2022-08-12T19:10:32.210Z,80.30
2022-08-12T19:13:23.434Z,80.30
2022-08-12T19:15:53.566Z,80.27
2022-08-12T19:18:22.157Z,80.55
2022-08-12T19:20:50.363Z,80.09
2022-08-12T19:23:21.315Z,80.10
2022-08-12T19:26:00.521Z,80.36
2022-08-12T19:28:34.675Z,80.52
2022-08-12T19:31:58.480Z,80.32
2022-08-12T19:35:06.537Z,80.07
2022-08-12T19:37:22.983Z,80.29
2022-08-12T19:40:10.121Z,80.79
2022-08-12T19:42:48.364Z,81.12
2022-08-12T19:45:20.293Z,81.05
2022-08-12T19:47:48.890Z,81.42
2022-08-12T19:50:20.293Z,81.91
2022-08-12T19:52:51.063Z,82.59
2022-08-12T19:55:22.234Z,83.04
2022-08-12T19:58:02.409Z,83.32
2022-08-12T20:00:31.294Z,83.53
2022-08-12T20:03:00.694Z,83.60
2022-08-12T20:06:07.830Z,83.83
2022-08-12T20:08:31.633Z,84.31
2022-08-12T20:12:12.293Z,84.62
2022-08-12T20:14:01.507Z,85.11
2022-08-12T20:16:52.183Z,86.92
2022-08-12T20:19:16.275Z,87.69
2022-08-12T20:21:44.502Z,87.52
2022-08-12T20:24:14.194Z,87.21
2022-08-12T20:26:42.182Z,87.17
2022-08-12T20:29:12.581Z,87.40
2022-08-12T20:31:40.780Z,87.87
2022-08-12T20:34:08.513Z,88.89
2022-08-12T20:36:40.713Z,88.46
2022-08-12T20:39:34.401Z,88.38
2022-08-12T20:42:00.029Z,87.94
2022-08-12T20:44:27.217Z,88.48
2022-08-12T20:46:59.103Z,88.38
2022-08-12T20:49:26.461Z,88.59
2022-08-12T20:51:59.366Z,88.51
2022-08-12T20:54:33.997Z,88.17
2022-08-12T20:57:02.010Z,88.12
2022-08-12T20:59:48.085Z,88.01
2022-08-12T21:02:24.643Z,87.60
2022-08-12T21:05:19.977Z,87.49
2022-08-12T21:07:51.955Z,87.63
2022-08-12T21:10:20.579Z,87.76
2022-08-12T21:12:48.234Z,87.87
2022-08-12T21:15:23.837Z,88.44
2022-08-12T21:18:15.429Z,88.17
2022-08-12T21:20:52.503Z,87.93
2022-08-12T21:23:21.486Z,88.15
2022-08-12T21:25:49.307Z,88.28
2022-08-12T21:28:20.820Z,88.45
2022-08-12T21:31:10.837Z,89.12
2022-08-12T21:34:06.256Z,89.89
2022-08-12T21:36:34.234Z,89.29
2022-08-12T21:39:19.277Z,89.12
2022-08-12T21:41:51.476Z,89.09
2022-08-12T21:44:24.411Z,89.70
2022-08-12T21:47:21.383Z,90.45
2022-08-12T21:50:06.682Z,89.82
2022-08-12T21:52:36.003Z,89.13
2022-08-12T21:55:08.116Z,88.76
2022-08-12T21:57:51.081Z,88.45
2022-08-12T22:00:32.537Z,88.36
2022-08-12T22:04:01.432Z,88.21
2022-08-12T22:06:25.992Z,88.37
2022-08-12T22:09:02.126Z,88.55
2022-08-12T22:11:41.475Z,88.46
2022-08-12T22:14:21.796Z,88.26
2022-08-12T22:16:53.198Z,89.05
2022-08-12T22:19:21.088Z,88.70
2022-08-12T22:21:53.506Z,88.41
2022-08-12T22:24:26.230Z,87.90
2022-08-12T22:26:56.497Z,87.47
2022-08-12T22:29:42.450Z,87.86
2022-08-12T22:32:11.934Z,88.90
2022-08-12T22:34:39.289Z,89.92
2022-08-12T22:37:11.346Z,90.00
2022-08-12T22:39:46.135Z,89.01
2022-08-12T22:42:34.022Z,88.43
2022-08-12T22:45:19.132Z,88.24
2022-08-12T22:47:55.145Z,87.82
2022-08-12T22:50:29.587Z,88.11
2022-08-12T22:53:15.858Z,88.31
2022-08-12T22:56:05.784Z,88.83
2022-08-12T22:58:33.749Z,88.88
2022-08-12T23:01:02.181Z,88.26
2022-08-12T23:03:48.601Z,88.68
2022-08-12T23:06:23.839Z,89.18
2022-08-12T23:08:51.887Z,88.96
2022-08-12T23:11:23.249Z,88.55
2022-08-12T23:14:00.822Z,88.72
2022-08-12T23:16:33.537Z,89.61
2022-08-12T23:19:18.199Z,89.43
2022-08-12T23:22:05.826Z,89.16
2022-08-12T23:24:54.048Z,89.77
2022-08-12T23:27:50.336Z,91.01
2022-08-12T23:30:32.104Z,92.34
2022-08-12T23:33:13.160Z,92.28
2022-08-12T23:35:58.830Z,92.34
2022-08-12T23:38:31.626Z,93.58
2022-08-12T23:41:03.596Z,93.57
2022-08-12T23:43:40.500Z,93.74
2022-08-12T23:46:10.969Z,93.24
2022-08-12T23:48:38.802Z,93.21
2022-08-12T23:51:22.705Z,93.33
2022-08-12T23:53:54.891Z,94.25
2022-08-12T23:56:23.623Z,95.46
2022-08-12T23:58:52.846Z,95.03
